sensor_id;sensor_type;location;lat;lon;timestamp;P1;durP1;ratioP1;P2;durP2;ratioP2
74100;SDS011;62462;52.530;21.682;2023-03-01T00:01:58;57.77;;;24.43;;
74100;SDS011;62462;52.530;21.682;2023-03-01T00:04:24;57.80;;;25.67;;
74100;SDS011;62462;52.530;21.682;2023-03-01T00:06:50;59.93;;;25.07;;
74100;SDS011;62462;52.530;21.682;2023-03-01T00:09:16;61.97;;;25.30;;
74100;SDS011;62462;52.530;21.682;2023-03-01T00:11:42;66.23;;;27.53;;
74100;SDS011;62462;52.530;21.682;2023-03-01T00:14:09;60.77;;;25.80;;
74100;SDS011;62462;52.530;21.682;2023-03-01T00:16:41;60.83;;;25.83;;
74100;SDS011;62462;52.530;21.682;2023-03-01T00:19:09;63.27;;;26.43;;
74100;SDS011;62462;52.530;21.682;2023-03-01T00:21:39;56.67;;;23.90;;
74100;SDS011;62462;52.530;21.682;2023-03-01T00:24:05;61.97;;;25.50;;
74100;SDS011;62462;52.530;21.682;2023-03-01T00:26:31;61.07;;;25.50;;
74100;SDS011;62462;52.530;21.682;2023-03-01T00:28:57;59.07;;;24.67;;
74100;SDS011;62462;52.530;21.682;2023-03-01T00:31:25;62.33;;;24.90;;
74100;SDS011;62462;52.530;21.682;2023-03-01T00:33:56;63.30;;;25.17;;
74100;SDS011;62462;52.530;21.682;2023-03-01T00:36:24;54.30;;;23.97;;
74100;SDS011;62462;52.530;21.682;2023-03-01T00:38:51;60.40;;;24.37;;
74100;SDS011;62462;52.530;21.682;2023-03-01T00:41:17;65.37;;;27.80;;
74100;SDS011;62462;52.530;21.682;2023-03-01T00:43:44;65.63;;;27.30;;
74100;SDS011;62462;52.530;21.682;2023-03-01T00:46:14;76.30;;;30.53;;
74100;SDS011;62462;52.530;21.682;2023-03-01T00:48:45;66.73;;;25.97;;
74100;SDS011;62462;52.530;21.682;2023-03-01T00:51:15;62.23;;;26.27;;
74100;SDS011;62462;52.530;21.682;2023-03-01T00:53:43;62.90;;;26.37;;
74100;SDS011;62462;52.530;21.682;2023-03-01T00:56:10;63.40;;;25.97;;
74100;SDS011;62462;52.530;21.682;2023-03-01T00:58:36;54.77;;;24.70;;
74100;SDS011;62462;52.530;21.682;2023-03-01T01:01:09;65.40;;;25.60;;
74100;SDS011;62462;52.530;21.682;2023-03-01T01:03:50;60.87;;;25.03;;
74100;SDS011;62462;52.530;21.682;2023-03-01T01:06:34;65.57;;;25.50;;
74100;SDS011;62462;52.530;21.682;2023-03-01T01:09:08;64.10;;;26.23;;
74100;SDS011;62462;52.530;21.682;2023-03-01T01:11:42;60.93;;;26.53;;
74100;SDS011;62462;52.530;21.682;2023-03-01T01:14:12;70.80;;;28.00;;
74100;SDS011;62462;52.530;21.682;2023-03-01T01:16:38;70.20;;;27.20;;
74100;SDS011;62462;52.530;21.682;2023-03-01T01:19:04;64.53;;;25.77;;
74100;SDS011;62462;52.530;21.682;2023-03-01T01:21:30;71.40;;;27.97;;
74100;SDS011;62462;52.530;21.682;2023-03-01T01:23:56;65.80;;;25.13;;
74100;SDS011;62462;52.530;21.682;2023-03-01T01:26:27;91.87;;;34.87;;
74100;SDS011;62462;52.530;21.682;2023-03-01T01:28:55;67.17;;;27.03;;
74100;SDS011;62462;52.530;21.682;2023-03-01T01:31:22;78.37;;;30.50;;
74100;SDS011;62462;52.530;21.682;2023-03-01T01:33:49;68.07;;;27.57;;
74100;SDS011;62462;52.530;21.682;2023-03-01T01:36:16;63.63;;;27.43;;
74100;SDS011;62462;52.530;21.682;2023-03-01T01:38:42;64.80;;;27.37;;
74100;SDS011;62462;52.530;21.682;2023-03-01T01:41:08;71.03;;;27.00;;
74100;SDS011;62462;52.530;21.682;2023-03-01T01:43:37;67.83;;;27.10;;
74100;SDS011;62462;52.530;21.682;2023-03-01T01:46:07;63.83;;;28.40;;
74100;SDS011;62462;52.530;21.682;2023-03-01T01:48:46;70.93;;;27.93;;
74100;SDS011;62462;52.530;21.682;2023-03-01T01:51:18;72.17;;;28.17;;
74100;SDS011;62462;52.530;21.682;2023-03-01T01:53:48;64.63;;;27.00;;
74100;SDS011;62462;52.530;21.682;2023-03-01T01:56:17;71.70;;;28.23;;
74100;SDS011;62462;52.530;21.682;2023-03-01T01:58:45;70.60;;;29.47;;
74100;SDS011;62462;52.530;21.682;2023-03-01T02:01:12;80.30;;;31.47;;
74100;SDS011;62462;52.530;21.682;2023-03-01T02:03:38;72.03;;;29.43;;
74100;SDS011;62462;52.530;21.682;2023-03-01T02:08:45;73.80;;;31.77;;
74100;SDS011;62462;52.530;21.682;2023-03-01T02:11:12;68.27;;;29.17;;
74100;SDS011;62462;52.530;21.682;2023-03-01T02:13:42;75.57;;;30.13;;
74100;SDS011;62462;52.530;21.682;2023-03-01T02:16:10;69.70;;;29.77;;
74100;SDS011;62462;52.530;21.682;2023-03-01T02:18:38;79.63;;;30.87;;
74100;SDS011;62462;52.530;21.682;2023-03-01T02:21:20;77.73;;;30.50;;
74100;SDS011;62462;52.530;21.682;2023-03-01T02:26:53;72.67;;;30.30;;
74100;SDS011;62462;52.530;21.682;2023-03-01T02:29:22;74.47;;;29.50;;
74100;SDS011;62462;52.530;21.682;2023-03-01T02:31:49;78.70;;;29.60;;
74100;SDS011;62462;52.530;21.682;2023-03-01T02:34:19;72.43;;;28.13;;
74100;SDS011;62462;52.530;21.682;2023-03-01T02:36:51;68.90;;;29.80;;
74100;SDS011;62462;52.530;21.682;2023-03-01T02:39:40;71.77;;;28.43;;
74100;SDS011;62462;52.530;21.682;2023-03-01T02:42:15;71.47;;;28.60;;
74100;SDS011;62462;52.530;21.682;2023-03-01T02:44:46;76.90;;;30.88;;
74100;SDS011;62462;52.530;21.682;2023-03-01T02:47:13;68.77;;;28.00;;
74100;SDS011;62462;52.530;21.682;2023-03-01T02:49:39;73.90;;;29.10;;
74100;SDS011;62462;52.530;21.682;2023-03-01T02:54:40;73.30;;;28.93;;
74100;SDS011;62462;52.530;21.682;2023-03-01T02:57:23;75.30;;;29.27;;
74100;SDS011;62462;52.530;21.682;2023-03-01T02:59:52;71.47;;;29.27;;
74100;SDS011;62462;52.530;21.682;2023-03-01T03:02:21;68.10;;;29.27;;
74100;SDS011;62462;52.530;21.682;2023-03-01T03:05:02;68.83;;;30.23;;
74100;SDS011;62462;52.530;21.682;2023-03-01T03:07:37;74.37;;;30.50;;
74100;SDS011;62462;52.530;21.682;2023-03-01T03:10:06;80.53;;;31.23;;
74100;SDS011;62462;52.530;21.682;2023-03-01T03:12:34;71.63;;;30.37;;
74100;SDS011;62462;52.530;21.682;2023-03-01T03:15:00;74.43;;;31.60;;
74100;SDS011;62462;52.530;21.682;2023-03-01T03:17:25;74.67;;;30.47;;
74100;SDS011;62462;52.530;21.682;2023-03-01T03:19:51;72.87;;;29.10;;
74100;SDS011;62462;52.530;21.682;2023-03-01T03:22:17;70.07;;;30.00;;
74100;SDS011;62462;52.530;21.682;2023-03-01T03:24:43;71.10;;;29.23;;
74100;SDS011;62462;52.530;21.682;2023-03-01T03:27:08;69.63;;;28.30;;
74100;SDS011;62462;52.530;21.682;2023-03-01T03:29:34;74.30;;;30.03;;
74100;SDS011;62462;52.530;21.682;2023-03-01T03:32:00;77.87;;;30.60;;
74100;SDS011;62462;52.530;21.682;2023-03-01T03:34:25;72.23;;;30.17;;
74100;SDS011;62462;52.530;21.682;2023-03-01T03:36:55;71.43;;;29.70;;
74100;SDS011;62462;52.530;21.682;2023-03-01T03:39:27;74.43;;;29.97;;
74100;SDS011;62462;52.530;21.682;2023-03-01T03:41:53;71.63;;;30.53;;
74100;SDS011;62462;52.530;21.682;2023-03-01T03:44:20;73.80;;;30.67;;
74100;SDS011;62462;52.530;21.682;2023-03-01T03:46:46;77.10;;;31.03;;
74100;SDS011;62462;52.530;21.682;2023-03-01T03:49:12;66.87;;;29.47;;
74100;SDS011;62462;52.530;21.682;2023-03-01T03:51:37;70.67;;;30.37;;
74100;SDS011;62462;52.530;21.682;2023-03-01T03:54:03;70.03;;;29.37;;
74100;SDS011;62462;52.530;21.682;2023-03-01T03:56:29;72.97;;;29.73;;
74100;SDS011;62462;52.530;21.682;2023-03-01T03:58:55;82.47;;;32.60;;
74100;SDS011;62462;52.530;21.682;2023-03-01T04:01:21;71.83;;;30.10;;
74100;SDS011;62462;52.530;21.682;2023-03-01T04:03:47;69.90;;;28.50;;
74100;SDS011;62462;52.530;21.682;2023-03-01T04:06:13;73.27;;;31.23;;
74100;SDS011;62462;52.530;21.682;2023-03-01T04:08:39;70.43;;;30.87;;
74100;SDS011;62462;52.530;21.682;2023-03-01T04:11:05;68.70;;;28.83;;
74100;SDS011;62462;52.530;21.682;2023-03-01T04:16:16;73.33;;;28.57;;
74100;SDS011;62462;52.530;21.682;2023-03-01T04:18:43;64.00;;;27.67;;
74100;SDS011;62462;52.530;21.682;2023-03-01T04:21:09;69.70;;;29.43;;
74100;SDS011;62462;52.530;21.682;2023-03-01T04:23:36;69.33;;;27.10;;
74100;SDS011;62462;52.530;21.682;2023-03-01T04:26:02;74.70;;;29.33;;
74100;SDS011;62462;52.530;21.682;2023-03-01T04:31:01;74.10;;;28.23;;
74100;SDS011;62462;52.530;21.682;2023-03-01T04:33:38;71.70;;;28.47;;
74100;SDS011;62462;52.530;21.682;2023-03-01T04:36:08;61.83;;;28.30;;
74100;SDS011;62462;52.530;21.682;2023-03-01T04:38:36;68.17;;;27.80;;
74100;SDS011;62462;52.530;21.682;2023-03-01T04:41:04;65.63;;;29.03;;
74100;SDS011;62462;52.530;21.682;2023-03-01T04:43:31;72.70;;;28.93;;
74100;SDS011;62462;52.530;21.682;2023-03-01T04:46:04;66.03;;;27.77;;
74100;SDS011;62462;52.530;21.682;2023-03-01T04:48:34;67.63;;;28.07;;
74100;SDS011;62462;52.530;21.682;2023-03-01T04:51:03;67.93;;;28.03;;
74100;SDS011;62462;52.530;21.682;2023-03-01T04:53:30;70.87;;;29.53;;
74100;SDS011;62462;52.530;21.682;2023-03-01T04:55:57;67.27;;;29.00;;
74100;SDS011;62462;52.530;21.682;2023-03-01T04:58:24;66.93;;;27.23;;
74100;SDS011;62462;52.530;21.682;2023-03-01T05:00:53;67.93;;;28.37;;
74100;SDS011;62462;52.530;21.682;2023-03-01T05:03:20;72.03;;;29.43;;
74100;SDS011;62462;52.530;21.682;2023-03-01T05:05:47;69.97;;;28.37;;
74100;SDS011;62462;52.530;21.682;2023-03-01T05:08:15;66.17;;;27.13;;
74100;SDS011;62462;52.530;21.682;2023-03-01T05:10:50;68.60;;;28.37;;
74100;SDS011;62462;52.530;21.682;2023-03-01T05:13:17;69.45;;;29.10;;
74100;SDS011;62462;52.530;21.682;2023-03-01T05:15:48;68.47;;;29.47;;
74100;SDS011;62462;52.530;21.682;2023-03-01T05:18:22;64.90;;;28.27;;
74100;SDS011;62462;52.530;21.682;2023-03-01T05:20:50;63.37;;;27.00;;
74100;SDS011;62462;52.530;21.682;2023-03-01T05:23:17;60.77;;;26.57;;
74100;SDS011;62462;52.530;21.682;2023-03-01T05:25:43;69.00;;;28.00;;
74100;SDS011;62462;52.530;21.682;2023-03-01T05:28:12;60.63;;;26.53;;
74100;SDS011;62462;52.530;21.682;2023-03-01T05:30:38;69.70;;;28.03;;
74100;SDS011;62462;52.530;21.682;2023-03-01T05:33:04;67.83;;;27.40;;
74100;SDS011;62462;52.530;21.682;2023-03-01T05:35:35;59.27;;;26.37;;
74100;SDS011;62462;52.530;21.682;2023-03-01T05:38:01;69.27;;;27.37;;
74100;SDS011;62462;52.530;21.682;2023-03-01T05:40:27;67.00;;;27.90;;
74100;SDS011;62462;52.530;21.682;2023-03-01T05:42:55;73.10;;;29.40;;
74100;SDS011;62462;52.530;21.682;2023-03-01T05:45:22;66.80;;;28.20;;
74100;SDS011;62462;52.530;21.682;2023-03-01T05:47:49;64.43;;;27.17;;
74100;SDS011;62462;52.530;21.682;2023-03-01T05:50:17;72.13;;;27.80;;
74100;SDS011;62462;52.530;21.682;2023-03-01T05:52:50;62.27;;;26.40;;
74100;SDS011;62462;52.530;21.682;2023-03-01T05:55:19;63.37;;;27.90;;
74100;SDS011;62462;52.530;21.682;2023-03-01T05:57:45;70.20;;;28.20;;
74100;SDS011;62462;52.530;21.682;2023-03-01T06:00:12;65.90;;;28.00;;
74100;SDS011;62462;52.530;21.682;2023-03-01T06:02:39;65.03;;;27.57;;
74100;SDS011;62462;52.530;21.682;2023-03-01T06:05:06;66.57;;;27.47;;
74100;SDS011;62462;52.530;21.682;2023-03-01T06:07:33;71.27;;;27.80;;
74100;SDS011;62462;52.530;21.682;2023-03-01T06:10:00;67.50;;;27.47;;
74100;SDS011;62462;52.530;21.682;2023-03-01T06:12:27;64.40;;;29.50;;
74100;SDS011;62462;52.530;21.682;2023-03-01T06:14:56;69.03;;;27.90;;
74100;SDS011;62462;52.530;21.682;2023-03-01T06:17:22;67.30;;;27.00;;
74100;SDS011;62462;52.530;21.682;2023-03-01T06:19:47;64.53;;;27.93;;
74100;SDS011;62462;52.530;21.682;2023-03-01T06:22:13;64.97;;;27.60;;
74100;SDS011;62462;52.530;21.682;2023-03-01T06:24:39;63.73;;;27.30;;
74100;SDS011;62462;52.530;21.682;2023-03-01T06:27:04;60.57;;;26.00;;
74100;SDS011;62462;52.530;21.682;2023-03-01T06:29:30;64.50;;;27.60;;
74100;SDS011;62462;52.530;21.682;2023-03-01T06:31:56;64.00;;;27.10;;
74100;SDS011;62462;52.530;21.682;2023-03-01T06:34:22;63.37;;;26.70;;
74100;SDS011;62462;52.530;21.682;2023-03-01T06:36:47;65.97;;;26.17;;
74100;SDS011;62462;52.530;21.682;2023-03-01T06:39:13;66.43;;;27.27;;
74100;SDS011;62462;52.530;21.682;2023-03-01T06:41:39;61.93;;;26.03;;
74100;SDS011;62462;52.530;21.682;2023-03-01T06:44:05;67.10;;;26.40;;
74100;SDS011;62462;52.530;21.682;2023-03-01T06:46:30;61.40;;;26.40;;
74100;SDS011;62462;52.530;21.682;2023-03-01T06:48:58;63.00;;;25.77;;
74100;SDS011;62462;52.530;21.682;2023-03-01T06:51:23;56.40;;;25.43;;
74100;SDS011;62462;52.530;21.682;2023-03-01T06:53:50;53.30;;;25.43;;
74100;SDS011;62462;52.530;21.682;2023-03-01T06:56:15;62.20;;;26.00;;
74100;SDS011;62462;52.530;21.682;2023-03-01T06:58:41;55.90;;;25.10;;
74100;SDS011;62462;52.530;21.682;2023-03-01T07:01:07;55.00;;;23.93;;
74100;SDS011;62462;52.530;21.682;2023-03-01T07:03:33;66.00;;;25.10;;
74100;SDS011;62462;52.530;21.682;2023-03-01T07:05:59;58.53;;;27.17;;
74100;SDS011;62462;52.530;21.682;2023-03-01T07:08:25;55.83;;;23.93;;
74100;SDS011;62462;52.530;21.682;2023-03-01T07:10:57;55.17;;;24.20;;
74100;SDS011;62462;52.530;21.682;2023-03-01T07:13:23;56.70;;;24.47;;
74100;SDS011;62462;52.530;21.682;2023-03-01T07:15:49;69.83;;;32.37;;
74100;SDS011;62462;52.530;21.682;2023-03-01T07:18:15;65.23;;;30.07;;
74100;SDS011;62462;52.530;21.682;2023-03-01T07:20:41;67.80;;;30.27;;
74100;SDS011;62462;52.530;21.682;2023-03-01T07:23:07;64.17;;;30.53;;
74100;SDS011;62462;52.530;21.682;2023-03-01T07:25:32;56.37;;;25.50;;
74100;SDS011;62462;52.530;21.682;2023-03-01T07:27:58;58.57;;;24.50;;
74100;SDS011;62462;52.530;21.682;2023-03-01T07:30:24;71.77;;;28.77;;
74100;SDS011;62462;52.530;21.682;2023-03-01T07:32:52;62.00;;;28.20;;
74100;SDS011;62462;52.530;21.682;2023-03-01T07:35:18;54.20;;;25.40;;
74100;SDS011;62462;52.530;21.682;2023-03-01T07:37:44;62.00;;;24.70;;
74100;SDS011;62462;52.530;21.682;2023-03-01T07:40:10;59.10;;;26.37;;
74100;SDS011;62462;52.530;21.682;2023-03-01T07:42:36;49.27;;;24.43;;
74100;SDS011;62462;52.530;21.682;2023-03-01T07:45:02;52.23;;;24.83;;
74100;SDS011;62462;52.530;21.682;2023-03-01T07:47:29;51.07;;;23.57;;
74100;SDS011;62462;52.530;21.682;2023-03-01T07:49:54;58.30;;;25.93;;
74100;SDS011;62462;52.530;21.682;2023-03-01T07:52:20;53.67;;;24.03;;
74100;SDS011;62462;52.530;21.682;2023-03-01T07:54:46;52.30;;;22.87;;
74100;SDS011;62462;52.530;21.682;2023-03-01T07:57:12;55.80;;;24.70;;
74100;SDS011;62462;52.530;21.682;2023-03-01T07:59:37;52.23;;;23.40;;
74100;SDS011;62462;52.530;21.682;2023-03-01T08:02:03;49.67;;;22.13;;
74100;SDS011;62462;52.530;21.682;2023-03-01T08:04:29;47.03;;;22.57;;
74100;SDS011;62462;52.530;21.682;2023-03-01T08:06:56;52.78;;;22.13;;
74100;SDS011;62462;52.530;21.682;2023-03-01T08:09:22;50.20;;;22.67;;
74100;SDS011;62462;52.530;21.682;2023-03-01T08:11:47;81.80;;;34.40;;
74100;SDS011;62462;52.530;21.682;2023-03-01T08:14:13;69.70;;;30.08;;
74100;SDS011;62462;52.530;21.682;2023-03-01T08:16:39;94.30;;;37.45;;
74100;SDS011;62462;52.530;21.682;2023-03-01T08:19:09;51.10;;;23.25;;
74100;SDS011;62462;52.530;21.682;2023-03-01T08:21:36;40.92;;;19.92;;
74100;SDS011;62462;52.530;21.682;2023-03-01T08:24:03;47.88;;;21.33;;
74100;SDS011;62462;52.530;21.682;2023-03-01T08:26:31;50.17;;;23.45;;
74100;SDS011;62462;52.530;21.682;2023-03-01T08:28:57;48.80;;;21.50;;
74100;SDS011;62462;52.530;21.682;2023-03-01T08:31:24;42.80;;;20.35;;
74100;SDS011;62462;52.530;21.682;2023-03-01T08:33:52;42.70;;;19.67;;
74100;SDS011;62462;52.530;21.682;2023-03-01T08:36:24;39.13;;;18.30;;
74100;SDS011;62462;52.530;21.682;2023-03-01T08:39:02;40.15;;;19.52;;
74100;SDS011;62462;52.530;21.682;2023-03-01T08:41:28;43.05;;;19.58;;
74100;SDS011;62462;52.530;21.682;2023-03-01T08:43:54;41.85;;;18.58;;
74100;SDS011;62462;52.530;21.682;2023-03-01T08:46:24;43.17;;;17.98;;
74100;SDS011;62462;52.530;21.682;2023-03-01T08:48:54;45.05;;;19.58;;
74100;SDS011;62462;52.530;21.682;2023-03-01T08:51:20;39.63;;;16.83;;
74100;SDS011;62462;52.530;21.682;2023-03-01T08:53:47;38.75;;;16.35;;
74100;SDS011;62462;52.530;21.682;2023-03-01T08:56:14;44.97;;;17.85;;
74100;SDS011;62462;52.530;21.682;2023-03-01T08:58:43;35.92;;;16.38;;
74100;SDS011;62462;52.530;21.682;2023-03-01T09:01:11;36.75;;;16.02;;
74100;SDS011;62462;52.530;21.682;2023-03-01T09:03:38;39.90;;;18.00;;
74100;SDS011;62462;52.530;21.682;2023-03-01T09:06:04;35.42;;;17.17;;
74100;SDS011;62462;52.530;21.682;2023-03-01T09:08:42;36.65;;;17.27;;
74100;SDS011;62462;52.530;21.682;2023-03-01T09:11:10;39.47;;;18.88;;
74100;SDS011;62462;52.530;21.682;2023-03-01T09:13:38;37.13;;;18.23;;
74100;SDS011;62462;52.530;21.682;2023-03-01T09:16:04;41.78;;;21.00;;
74100;SDS011;62462;52.530;21.682;2023-03-01T09:18:32;45.70;;;21.83;;
74100;SDS011;62462;52.530;21.682;2023-03-01T09:21:06;43.92;;;21.17;;
74100;SDS011;62462;52.530;21.682;2023-03-01T09:23:34;40.75;;;20.45;;
74100;SDS011;62462;52.530;21.682;2023-03-01T09:26:02;39.00;;;17.63;;
74100;SDS011;62462;52.530;21.682;2023-03-01T09:28:28;34.85;;;16.30;;
74100;SDS011;62462;52.530;21.682;2023-03-01T09:30:57;35.47;;;16.98;;
74100;SDS011;62462;52.530;21.682;2023-03-01T09:33:24;35.50;;;15.20;;
74100;SDS011;62462;52.530;21.682;2023-03-01T09:35:49;35.50;;;17.95;;
74100;SDS011;62462;52.530;21.682;2023-03-01T09:38:20;40.88;;;20.30;;
74100;SDS011;62462;52.530;21.682;2023-03-01T09:40:46;34.45;;;17.13;;
74100;SDS011;62462;52.530;21.682;2023-03-01T09:43:17;34.70;;;16.50;;
74100;SDS011;62462;52.530;21.682;2023-03-01T09:45:48;38.50;;;17.60;;
74100;SDS011;62462;52.530;21.682;2023-03-01T09:48:18;31.80;;;16.75;;
74100;SDS011;62462;52.530;21.682;2023-03-01T09:50:48;39.03;;;16.10;;
74100;SDS011;62462;52.530;21.682;2023-03-01T09:53:16;40.83;;;18.38;;
74100;SDS011;62462;52.530;21.682;2023-03-01T10:04:27;33.28;;;15.88;;
74100;SDS011;62462;52.530;21.682;2023-03-01T10:06:59;31.05;;;15.75;;
74100;SDS011;62462;52.530;21.682;2023-03-01T10:09:39;32.90;;;14.70;;
74100;SDS011;62462;52.530;21.682;2023-03-01T10:12:10;36.55;;;15.93;;
74100;SDS011;62462;52.530;21.682;2023-03-01T10:14:43;36.05;;;16.70;;
74100;SDS011;62462;52.530;21.682;2023-03-01T10:17:24;31.42;;;16.05;;
74100;SDS011;62462;52.530;21.682;2023-03-01T10:19:51;27.08;;;14.32;;
74100;SDS011;62462;52.530;21.682;2023-03-01T10:24:55;33.08;;;14.93;;
74100;SDS011;62462;52.530;21.682;2023-03-01T10:27:34;34.80;;;16.35;;
74100;SDS011;62462;52.530;21.682;2023-03-01T10:32:54;27.33;;;13.25;;
74100;SDS011;62462;52.530;21.682;2023-03-01T10:35:23;26.13;;;13.32;;
74100;SDS011;62462;52.530;21.682;2023-03-01T10:38:23;23.15;;;12.00;;
74100;SDS011;62462;52.530;21.682;2023-03-01T10:43:46;24.80;;;12.40;;
74100;SDS011;62462;52.530;21.682;2023-03-01T10:46:33;29.13;;;13.18;;
74100;SDS011;62462;52.530;21.682;2023-03-01T10:51:36;25.30;;;12.07;;
74100;SDS011;62462;52.530;21.682;2023-03-01T10:54:03;27.10;;;12.77;;
74100;SDS011;62462;52.530;21.682;2023-03-01T10:56:30;30.20;;;13.38;;
74100;SDS011;62462;52.530;21.682;2023-03-01T11:02:01;25.52;;;13.25;;
74100;SDS011;62462;52.530;21.682;2023-03-01T11:07:51;29.45;;;14.02;;
74100;SDS011;62462;52.530;21.682;2023-03-01T11:10:20;29.70;;;13.82;;
74100;SDS011;62462;52.530;21.682;2023-03-01T11:15:42;27.48;;;13.60;;
74100;SDS011;62462;52.530;21.682;2023-03-01T11:18:18;27.60;;;13.80;;
74100;SDS011;62462;52.530;21.682;2023-03-01T11:20:48;29.88;;;14.38;;
74100;SDS011;62462;52.530;21.682;2023-03-01T11:23:18;27.52;;;13.20;;
74100;SDS011;62462;52.530;21.682;2023-03-01T11:25:51;31.77;;;14.02;;
74100;SDS011;62462;52.530;21.682;2023-03-01T11:28:23;24.45;;;12.93;;
74100;SDS011;62462;52.530;21.682;2023-03-01T11:33:39;27.50;;;13.95;;
74100;SDS011;62462;52.530;21.682;2023-03-01T11:36:32;28.08;;;12.70;;
74100;SDS011;62462;52.530;21.682;2023-03-01T11:39:02;26.38;;;13.18;;
74100;SDS011;62462;52.530;21.682;2023-03-01T11:41:36;30.13;;;13.52;;
74100;SDS011;62462;52.530;21.682;2023-03-01T11:44:10;25.65;;;12.95;;
74100;SDS011;62462;52.530;21.682;2023-03-01T12:08:24;26.67;;;13.70;;
74100;SDS011;62462;52.530;21.682;2023-03-01T12:19:12;28.52;;;14.27;;
74100;SDS011;62462;52.530;21.682;2023-03-01T12:21:58;28.73;;;13.90;;
74100;SDS011;62462;52.530;21.682;2023-03-01T12:32:59;24.70;;;13.00;;
74100;SDS011;62462;52.530;21.682;2023-03-01T12:36:19;26.10;;;12.38;;
74100;SDS011;62462;52.530;21.682;2023-03-01T12:39:12;28.27;;;13.57;;
74100;SDS011;62462;52.530;21.682;2023-03-01T12:50:43;27.05;;;13.18;;
74100;SDS011;62462;52.530;21.682;2023-03-01T12:52:56;23.83;;;12.25;;
74100;SDS011;62462;52.530;21.682;2023-03-01T12:55:28;27.80;;;13.38;;
74100;SDS011;62462;52.530;21.682;2023-03-01T12:58:05;28.35;;;13.52;;
74100;SDS011;62462;52.530;21.682;2023-03-01T13:03:49;27.75;;;14.07;;
74100;SDS011;62462;52.530;21.682;2023-03-01T13:09:29;28.17;;;14.20;;
74100;SDS011;62462;52.530;21.682;2023-03-01T13:15:30;31.25;;;14.55;;
74100;SDS011;62462;52.530;21.682;2023-03-01T13:18:11;25.02;;;13.18;;
74100;SDS011;62462;52.530;21.682;2023-03-01T13:20:51;33.13;;;14.23;;
74100;SDS011;62462;52.530;21.682;2023-03-01T13:31:06;27.10;;;12.55;;
74100;SDS011;62462;52.530;21.682;2023-03-01T13:33:41;29.40;;;13.63;;
74100;SDS011;62462;52.530;21.682;2023-03-01T13:49:28;26.30;;;12.88;;
74100;SDS011;62462;52.530;21.682;2023-03-01T13:51:57;26.92;;;12.82;;
74100;SDS011;62462;52.530;21.682;2023-03-01T13:54:29;29.08;;;14.35;;
74100;SDS011;62462;52.530;21.682;2023-03-01T13:56:57;25.42;;;14.02;;
74100;SDS011;62462;52.530;21.682;2023-03-01T13:59:26;25.13;;;12.60;;
74100;SDS011;62462;52.530;21.682;2023-03-01T14:01:56;23.17;;;13.10;;
74100;SDS011;62462;52.530;21.682;2023-03-01T14:04:25;30.55;;;14.35;;
74100;SDS011;62462;52.530;21.682;2023-03-01T14:06:52;28.70;;;15.02;;
74100;SDS011;62462;52.530;21.682;2023-03-01T14:09:43;26.08;;;13.43;;
74100;SDS011;62462;52.530;21.682;2023-03-01T14:12:32;23.75;;;12.80;;
74100;SDS011;62462;52.530;21.682;2023-03-01T14:18:04;26.55;;;12.82;;
74100;SDS011;62462;52.530;21.682;2023-03-01T14:20:37;22.52;;;11.95;;
74100;SDS011;62462;52.530;21.682;2023-03-01T14:23:10;24.80;;;11.95;;
74100;SDS011;62462;52.530;21.682;2023-03-01T14:25:38;27.23;;;14.55;;
74100;SDS011;62462;52.530;21.682;2023-03-01T14:28:26;24.23;;;13.20;;
74100;SDS011;62462;52.530;21.682;2023-03-01T14:30:54;28.77;;;14.27;;
74100;SDS011;62462;52.530;21.682;2023-03-01T14:41:00;29.05;;;13.68;;
74100;SDS011;62462;52.530;21.682;2023-03-01T14:43:32;32.67;;;17.23;;
74100;SDS011;62462;52.530;21.682;2023-03-01T14:45:58;38.20;;;20.55;;
74100;SDS011;62462;52.530;21.682;2023-03-01T14:48:24;33.25;;;16.80;;
74100;SDS011;62462;52.530;21.682;2023-03-01T14:50:52;28.98;;;15.57;;
74100;SDS011;62462;52.530;21.682;2023-03-01T14:53:27;30.63;;;16.60;;
74100;SDS011;62462;52.530;21.682;2023-03-01T14:55:55;27.27;;;14.35;;
74100;SDS011;62462;52.530;21.682;2023-03-01T14:58:27;28.20;;;15.60;;
74100;SDS011;62462;52.530;21.682;2023-03-01T15:00:54;34.50;;;15.68;;
74100;SDS011;62462;52.530;21.682;2023-03-01T15:03:38;27.52;;;14.07;;
74100;SDS011;62462;52.530;21.682;2023-03-01T15:06:10;30.40;;;15.20;;
74100;SDS011;62462;52.530;21.682;2023-03-01T15:08:41;28.10;;;14.77;;
74100;SDS011;62462;52.530;21.682;2023-03-01T15:11:31;31.45;;;14.73;;
74100;SDS011;62462;52.530;21.682;2023-03-01T15:13:58;27.55;;;13.52;;
74100;SDS011;62462;52.530;21.682;2023-03-01T15:16:26;25.83;;;14.18;;
74100;SDS011;62462;52.530;21.682;2023-03-01T15:18:59;27.00;;;12.73;;
74100;SDS011;62462;52.530;21.682;2023-03-01T15:26:45;35.97;;;18.88;;
74100;SDS011;62462;52.530;21.682;2023-03-01T15:29:26;51.97;;;23.65;;
74100;SDS011;62462;52.530;21.682;2023-03-01T15:31:59;51.22;;;21.15;;
74100;SDS011;62462;52.530;21.682;2023-03-01T15:34:32;42.88;;;18.80;;
74100;SDS011;62462;52.530;21.682;2023-03-01T15:37:02;33.58;;;16.73;;
74100;SDS011;62462;52.530;21.682;2023-03-01T15:42:08;29.23;;;15.32;;
74100;SDS011;62462;52.530;21.682;2023-03-01T15:44:39;47.10;;;33.30;;
74100;SDS011;62462;52.530;21.682;2023-03-01T15:47:26;47.97;;;26.50;;
74100;SDS011;62462;52.530;21.682;2023-03-01T15:49:54;42.63;;;23.48;;
74100;SDS011;62462;52.530;21.682;2023-03-01T15:54:59;61.88;;;26.73;;
74100;SDS011;62462;52.530;21.682;2023-03-01T15:57:27;59.15;;;27.90;;
74100;SDS011;62462;52.530;21.682;2023-03-01T15:59:53;59.70;;;28.83;;
74100;SDS011;62462;52.530;21.682;2023-03-01T16:02:18;57.17;;;28.60;;
74100;SDS011;62462;52.530;21.682;2023-03-01T16:04:46;76.47;;;36.67;;
74100;SDS011;62462;52.530;21.682;2023-03-01T16:07:13;82.78;;;36.72;;
74100;SDS011;62462;52.530;21.682;2023-03-01T16:09:39;53.30;;;23.98;;
74100;SDS011;62462;52.530;21.682;2023-03-01T16:12:05;42.65;;;19.05;;
74100;SDS011;62462;52.530;21.682;2023-03-01T16:14:37;36.33;;;17.77;;
74100;SDS011;62462;52.530;21.682;2023-03-01T16:17:02;33.22;;;17.05;;
74100;SDS011;62462;52.530;21.682;2023-03-01T16:19:28;36.47;;;17.58;;
74100;SDS011;62462;52.530;21.682;2023-03-01T16:21:54;35.95;;;17.17;;
74100;SDS011;62462;52.530;21.682;2023-03-01T16:24:20;35.22;;;16.92;;
74100;SDS011;62462;52.530;21.682;2023-03-01T16:26:45;35.60;;;16.38;;
74100;SDS011;62462;52.530;21.682;2023-03-01T16:29:11;28.98;;;15.52;;
74100;SDS011;62462;52.530;21.682;2023-03-01T16:31:37;33.65;;;15.55;;
74100;SDS011;62462;52.530;21.682;2023-03-01T16:34:02;33.30;;;14.75;;
74100;SDS011;62462;52.530;21.682;2023-03-01T16:36:28;31.55;;;14.88;;
74100;SDS011;62462;52.530;21.682;2023-03-01T16:38:55;32.95;;;15.65;;
74100;SDS011;62462;52.530;21.682;2023-03-01T16:41:23;34.92;;;16.20;;
74100;SDS011;62462;52.530;21.682;2023-03-01T16:43:49;29.80;;;14.80;;
74100;SDS011;62462;52.530;21.682;2023-03-01T16:46:19;30.50;;;14.32;;